Crew | Aerofun Virtual



 METAR AND TAF INFORMATION
METAR FOR EFIV
ADDS - METARS form results

(0456 UTC 20 May 2019)
Data provider http://aviationweather.gov/metar/data/
 
METAR text: EFIV 200450Z AUTO 03007KT CAVOK 07/01 Q1020
Conditions at: EFIV (IVALO , FI) observed 0450 UTC 20 May 2019
Temperature: 7.0°C (45°F)
Dewpoint: 1.0°C (34°F) [RH = 66%]
Pressure (altimeter): 30.12 inches Hg (1020.0 mb)
Winds: from the NNE (30 degrees) at 8 MPH (7 knots; 3.6 m/s)
Visibility: 6 or more miles (10+ km)
Ceiling: ceiling and visibility are OK
Clouds: unknown
Weather: no significant weather observed at this time

METAR text: EFIV 200420Z AUTO 02007KT CAVOK 06/00 Q1020
Conditions at: EFIV (IVALO , FI) observed 0420 UTC 20 May 2019
Temperature: 6.0°C (43°F)
Dewpoint: 0.0°C (32°F) [RH = 65%]
Pressure (altimeter): 30.12 inches Hg (1020.0 mb)
Winds: from the NNE (20 degrees) at 8 MPH (7 knots; 3.6 m/s)
Visibility: 6 or more miles (10+ km)
Ceiling: ceiling and visibility are OK
Clouds: unknown
Weather: no significant weather observed at this time

 AIRPORT MAP

 RUNWAY INFORMATION
Runway 04 Runway length 8199 ft Runway width 148 ft
Runway elevation 480 ft Runway displaced threshold 0 ft Runway heading 47
Runway 22 Runway length 8199 ft Runway width 148 ft
Runway elevation 463 ft Runway displaced threshold 0 ft Runway heading 227
Runway 08 Runway length 2625 ft Runway width 148 ft
Runway elevation 475 ft Runway displaced threshold 0 ft Runway heading 92
Runway 26 Runway length 2625 ft Runway width 148 ft
Runway elevation 468 ft Runway displaced threshold 0 ft Runway heading 272

 AIRPORT FREQUENCIES
Type ATIS Name ATIS Frequency 123.2 MHZ
Type TWR Name TWR Frequency 118 MHZ

 AIRPORT NEAR NAVIGATION AIDS
Type NDB Name Akujarvi Frequency 432 KHZ